createdAt,value
2018-01-27T00:01:29.280Z,49.70
2018-01-27T00:03:57.778Z,44.77
2018-01-27T00:06:25.310Z,45.20
2018-01-27T00:08:52.872Z,49.27
2018-01-27T00:11:20.461Z,47.10
2018-01-27T00:13:52.064Z,49.70
2018-01-27T00:16:19.969Z,44.13
2018-01-27T00:18:47.511Z,46.27
2018-01-27T00:21:15.038Z,46.27
2018-01-27T00:23:42.718Z,46.20
2018-01-27T00:26:10.276Z,48.67
2018-01-27T00:28:37.822Z,50.00
2018-01-27T00:31:05.372Z,47.40
2018-01-27T00:33:32.890Z,46.70
2018-01-27T00:36:00.487Z,46.80
2018-01-27T00:38:28.016Z,46.73
2018-01-27T00:40:55.558Z,46.50
2018-01-27T00:43:23.104Z,45.97
2018-01-27T00:45:50.717Z,44.43
2018-01-27T00:48:18.238Z,44.77
2018-01-27T00:50:45.791Z,45.13
2018-01-27T00:53:13.744Z,44.40
2018-01-27T00:55:41.268Z,44.60
2018-01-27T00:58:08.826Z,41.80
2018-01-27T01:00:36.376Z,43.87
2018-01-27T01:03:03.918Z,42.93
2018-01-27T01:05:31.463Z,40.53
2018-01-27T01:07:59.007Z,44.50
2018-01-27T01:10:26.572Z,41.43
2018-01-27T01:12:54.117Z,42.23
2018-01-27T01:15:21.682Z,41.37
2018-01-27T01:17:49.202Z,43.77
2018-01-27T01:20:16.723Z,46.40
2018-01-27T01:22:44.286Z,45.13
2018-01-27T01:25:11.838Z,46.80
2018-01-27T01:27:39.404Z,43.50
2018-01-27T01:30:06.941Z,42.83
2018-01-27T01:32:34.500Z,43.50
2018-01-27T01:35:02.029Z,45.10
2018-01-27T01:37:29.578Z,45.20
2018-01-27T01:39:57.141Z,43.73
2018-01-27T01:42:30.511Z,44.53
2018-01-27T01:44:58.032Z,45.60
2018-01-27T01:47:25.551Z,44.17
2018-01-27T01:49:53.137Z,41.90
2018-01-27T01:52:20.733Z,44.67
2018-01-27T01:54:48.294Z,40.67
2018-01-27T01:57:15.842Z,48.80
2018-01-27T01:59:43.359Z,43.30
2018-01-27T02:02:10.927Z,42.83
2018-01-27T02:04:38.464Z,40.50
2018-01-27T02:07:06.016Z,40.50
2018-01-27T02:09:33.948Z,41.27
2018-01-27T02:12:01.499Z,41.50
2018-01-27T02:14:29.019Z,39.17
2018-01-27T02:16:56.610Z,42.27
2018-01-27T02:19:24.197Z,39.83
2018-01-27T02:21:51.789Z,37.70
2018-01-27T02:24:19.359Z,36.40
2018-01-27T02:26:46.870Z,33.80
2018-01-27T02:29:14.461Z,32.93
2018-01-27T02:31:42.038Z,31.73
2018-01-27T02:34:09.628Z,32.17
2018-01-27T02:36:37.333Z,33.20
2018-01-27T02:39:04.940Z,34.30
2018-01-27T02:41:32.497Z,31.00
2018-01-27T02:44:00.080Z,29.70
2018-01-27T02:46:27.729Z,31.50
2018-01-27T02:48:55.284Z,30.13
2018-01-27T02:51:22.846Z,29.80
2018-01-27T02:53:50.411Z,28.87
2018-01-27T02:56:18.034Z,32.27
2018-01-27T02:58:45.577Z,30.50
2018-01-27T03:01:13.134Z,32.20
2018-01-27T03:03:40.675Z,31.17
2018-01-27T03:06:08.240Z,31.10
2018-01-27T03:08:35.774Z,29.67
2018-01-27T03:11:03.604Z,31.10
2018-01-27T03:13:31.123Z,29.23
2018-01-27T03:15:58.652Z,27.90
2018-01-27T03:18:26.224Z,31.07
2018-01-27T03:20:53.771Z,34.03
2018-01-27T03:23:21.302Z,33.10
2018-01-27T03:25:48.954Z,31.17
2018-01-27T03:28:16.542Z,33.30
2018-01-27T03:30:44.067Z,32.73
2018-01-27T03:33:11.677Z,34.90
2018-01-27T03:35:39.244Z,33.90
2018-01-27T03:38:06.824Z,35.53
2018-01-27T03:40:34.484Z,34.80
2018-01-27T03:43:02.041Z,32.73
2018-01-27T03:45:29.581Z,31.27
2018-01-27T03:47:57.160Z,33.27
2018-01-27T03:50:24.722Z,33.40
2018-01-27T03:52:52.265Z,34.17
2018-01-27T03:55:19.854Z,32.90
2018-01-27T03:57:47.388Z,33.93
2018-01-27T04:00:14.954Z,31.57
2018-01-27T04:02:42.545Z,29.77
2018-01-27T04:05:10.059Z,30.93
2018-01-27T04:07:37.604Z,31.33
2018-01-27T04:10:05.156Z,29.10
2018-01-27T04:12:32.675Z,29.67
2018-01-27T04:15:00.251Z,28.70
2018-01-27T04:17:27.810Z,31.90
2018-01-27T04:19:55.402Z,29.70
2018-01-27T04:22:22.969Z,31.60
2018-01-27T04:24:50.487Z,32.40
2018-01-27T04:27:18.065Z,33.47
2018-01-27T04:29:45.629Z,33.77
2018-01-27T04:32:13.230Z,33.87
2018-01-27T04:34:40.789Z,36.90
2018-01-27T04:37:08.323Z,34.13
2018-01-27T04:39:35.956Z,33.37
2018-01-27T04:42:03.499Z,34.27
2018-01-27T04:44:31.028Z,37.63
2018-01-27T04:46:58.618Z,34.60
2018-01-27T04:49:26.185Z,35.40
2018-01-27T04:51:53.768Z,34.00
2018-01-27T04:54:21.318Z,36.47
2018-01-27T04:56:48.857Z,35.50
2018-01-27T04:59:16.440Z,36.63
2018-01-27T05:01:43.963Z,33.63
2018-01-27T05:04:11.541Z,39.17
2018-01-27T05:06:39.071Z,38.70
2018-01-27T05:09:06.616Z,37.90
2018-01-27T05:11:34.181Z,38.23
2018-01-27T05:14:01.732Z,39.03
2018-01-27T05:16:29.275Z,41.17
2018-01-27T05:18:57.133Z,36.83
2018-01-27T05:21:24.685Z,35.83
2018-01-27T05:23:52.252Z,36.87
2018-01-27T05:26:19.838Z,37.77
2018-01-27T05:28:48.295Z,37.00
2018-01-27T05:31:15.877Z,38.83
2018-01-27T05:33:43.461Z,36.10
2018-01-27T05:36:11.002Z,36.77
2018-01-27T05:38:38.519Z,34.07
2018-01-27T05:41:06.100Z,36.07
2018-01-27T05:43:33.624Z,36.27
2018-01-27T05:46:01.188Z,33.83
2018-01-27T05:48:28.755Z,33.73
2018-01-27T05:50:56.294Z,37.20
2018-01-27T05:53:24.238Z,38.43
2018-01-27T05:55:51.779Z,36.07
2018-01-27T05:58:19.321Z,36.10
2018-01-27T06:00:46.895Z,34.47
2018-01-27T06:03:14.450Z,34.40
2018-01-27T06:05:42.016Z,33.57
2018-01-27T06:08:09.850Z,37.70
2018-01-27T06:10:37.394Z,32.20
2018-01-27T06:13:04.937Z,36.00
2018-01-27T06:15:32.511Z,34.40
2018-01-27T06:18:00.037Z,33.20
2018-01-27T06:20:27.596Z,33.33
2018-01-27T06:22:55.142Z,33.20
2018-01-27T06:25:22.757Z,33.70
2018-01-27T06:27:50.327Z,34.03
2018-01-27T06:30:17.846Z,36.07
2018-01-27T06:32:45.692Z,34.03
2018-01-27T06:35:13.221Z,31.57
2018-01-27T06:37:40.772Z,36.57
2018-01-27T06:40:08.357Z,34.37
2018-01-27T06:42:35.923Z,36.70
2018-01-27T06:45:03.514Z,32.13
2018-01-27T06:47:31.058Z,31.97
2018-01-27T06:49:58.589Z,33.13
2018-01-27T06:52:26.167Z,31.43
2018-01-27T06:54:54.374Z,32.20
2018-01-27T06:57:21.952Z,35.33
2018-01-27T06:59:49.480Z,33.03
2018-01-27T07:02:17.002Z,35.67
2018-01-27T07:04:44.586Z,32.33
2018-01-27T07:07:12.137Z,32.80
2018-01-27T07:09:39.703Z,32.90
2018-01-27T07:12:07.270Z,29.37
2018-01-27T07:14:34.819Z,33.67
2018-01-27T07:17:02.428Z,31.03
2018-01-27T07:19:29.976Z,30.63
2018-01-27T07:21:57.523Z,27.00
2018-01-27T07:24:25.081Z,29.07
2018-01-27T07:26:52.598Z,28.80
2018-01-27T07:29:20.295Z,27.53
2018-01-27T07:31:47.818Z,29.03
2018-01-27T07:34:15.354Z,31.73
2018-01-27T07:36:42.926Z,29.90
2018-01-27T07:39:10.482Z,28.07
2018-01-27T07:41:38.043Z,28.17
2018-01-27T07:44:05.641Z,28.60
2018-01-27T07:46:33.192Z,28.40
2018-01-27T07:49:00.725Z,28.10
2018-01-27T07:51:28.310Z,29.03
2018-01-27T07:53:55.888Z,28.60
2018-01-27T07:56:23.453Z,27.37
2018-01-27T07:58:51.059Z,28.03
2018-01-27T08:01:18.575Z,28.27
2018-01-27T08:03:46.095Z,29.67
2018-01-27T08:06:13.975Z,30.00
2018-01-27T08:08:41.542Z,27.13
2018-01-27T08:11:09.101Z,28.40
2018-01-27T08:13:36.706Z,28.40
2018-01-27T08:16:04.257Z,27.57
2018-01-27T08:18:31.784Z,28.47
2018-01-27T08:20:59.334Z,27.70
2018-01-27T08:23:26.859Z,26.67
2018-01-27T08:25:54.427Z,24.13
2018-01-27T08:28:21.948Z,24.43
2018-01-27T08:30:49.892Z,26.60
2018-01-27T08:33:17.460Z,25.30
2018-01-27T08:35:44.972Z,25.87
2018-01-27T08:38:12.535Z,24.20
2018-01-27T08:40:40.102Z,24.13
2018-01-27T08:43:07.652Z,25.30
2018-01-27T08:45:35.579Z,25.17
2018-01-27T08:48:03.101Z,25.20
2018-01-27T08:50:30.619Z,26.70
2018-01-27T08:52:58.165Z,24.47
2018-01-27T08:55:25.697Z,25.03
2018-01-27T08:57:53.252Z,25.50
2018-01-27T09:00:20.778Z,25.70
2018-01-27T09:02:48.314Z,24.50
2018-01-27T09:05:15.877Z,24.30
2018-01-27T09:07:43.414Z,23.60
2018-01-27T09:10:10.955Z,24.27
2018-01-27T09:12:38.499Z,24.87
2018-01-27T09:15:06.054Z,28.40
2018-01-27T09:17:33.570Z,27.40
2018-01-27T09:20:01.140Z,25.17
2018-01-27T09:22:28.705Z,28.17
2018-01-27T09:24:56.234Z,24.63
2018-01-27T09:27:23.774Z,25.33
2018-01-27T09:29:51.343Z,29.07
2018-01-27T09:32:18.905Z,27.00
2018-01-27T09:34:46.462Z,28.70
2018-01-27T09:37:13.987Z,26.10
2018-01-27T09:39:41.550Z,29.67
2018-01-27T09:42:09.140Z,28.87
2018-01-27T09:44:36.728Z,26.80
2018-01-27T09:47:04.247Z,29.30
2018-01-27T09:49:31.794Z,26.30
2018-01-27T09:51:59.375Z,25.80
2018-01-27T09:54:26.916Z,26.90
2018-01-27T09:56:54.478Z,27.30
2018-01-27T09:59:22.064Z,28.53
2018-01-27T10:01:49.584Z,28.77
2018-01-27T10:04:17.182Z,23.53
2018-01-27T10:06:44.741Z,30.30
2018-01-27T10:09:12.274Z,32.97
2018-01-27T10:11:39.815Z,26.10
2018-01-27T10:14:07.371Z,22.40
2018-01-27T10:16:34.950Z,22.73
2018-01-27T10:19:02.838Z,24.00
2018-01-27T10:21:30.461Z,25.37
2018-01-27T10:23:58.045Z,23.80
2018-01-27T10:26:25.636Z,21.50
2018-01-27T10:28:53.542Z,20.90
2018-01-27T10:31:21.087Z,20.47
2018-01-27T10:33:48.646Z,23.27
2018-01-27T10:36:16.230Z,18.63
2018-01-27T10:38:43.785Z,17.90
2018-01-27T10:41:11.354Z,15.70
2018-01-27T10:43:38.927Z,16.33
2018-01-27T10:46:06.970Z,17.10
2018-01-27T10:48:34.531Z,16.57
2018-01-27T10:51:02.132Z,15.00
2018-01-27T10:53:29.685Z,14.37
2018-01-27T10:55:57.234Z,15.10
2018-01-27T10:58:24.802Z,14.30
2018-01-27T11:00:52.362Z,13.83
2018-01-27T11:03:19.932Z,14.90
2018-01-27T11:05:47.464Z,15.17
2018-01-27T11:08:15.030Z,14.53
2018-01-27T11:10:42.575Z,15.40
2018-01-27T11:13:10.132Z,15.43
2018-01-27T11:15:37.689Z,15.83
2018-01-27T11:18:05.233Z,17.70
2018-01-27T11:20:32.813Z,14.83
2018-01-27T11:23:00.370Z,15.90
2018-01-27T11:25:27.962Z,18.40
2018-01-27T11:27:55.476Z,16.33
2018-01-27T11:30:23.002Z,17.17
2018-01-27T11:32:50.597Z,14.47
2018-01-27T11:35:18.157Z,15.57
2018-01-27T11:37:45.700Z,14.60
2018-01-27T11:40:13.210Z,16.30
2018-01-27T11:42:40.762Z,16.67
2018-01-27T11:45:08.312Z,16.37
2018-01-27T11:47:35.906Z,17.20
2018-01-27T11:50:03.465Z,16.00
2018-01-27T11:52:30.996Z,18.40
2018-01-27T11:54:58.593Z,16.57
2018-01-27T11:57:26.103Z,16.40
2018-01-27T11:59:53.668Z,17.97
2018-01-27T12:02:21.236Z,18.60
2018-01-27T12:04:48.855Z,17.60
2018-01-27T12:07:16.398Z,21.20
2018-01-27T12:09:43.941Z,25.73
2018-01-27T12:12:11.494Z,22.90
2018-01-27T12:14:39.017Z,26.10
2018-01-27T12:17:07.048Z,27.43
2018-01-27T12:19:34.564Z,26.83
2018-01-27T12:22:02.121Z,26.77
2018-01-27T12:24:30.081Z,28.63
2018-01-27T12:26:57.594Z,29.70
2018-01-27T12:29:25.155Z,28.27
2018-01-27T12:31:52.714Z,31.97
2018-01-27T12:34:20.462Z,28.87
2018-01-27T12:36:48.034Z,31.80
2018-01-27T12:39:15.585Z,31.43
2018-01-27T12:41:43.146Z,25.47
2018-01-27T12:44:10.719Z,30.90
2018-01-27T12:46:38.298Z,27.90
2018-01-27T12:49:05.815Z,29.03
2018-01-27T12:51:33.329Z,27.90
2018-01-27T12:54:00.925Z,29.17
2018-01-27T12:56:28.463Z,26.60
2018-01-27T12:58:55.999Z,29.60
2018-01-27T13:01:23.872Z,25.30
2018-01-27T13:03:51.407Z,28.23
2018-01-27T13:06:18.928Z,26.10
2018-01-27T13:08:46.506Z,25.83
2018-01-27T13:11:14.039Z,25.20
2018-01-27T13:13:41.978Z,26.53
2018-01-27T13:16:09.539Z,21.30
2018-01-27T13:18:37.115Z,25.00
2018-01-27T13:21:04.986Z,24.87
2018-01-27T13:23:32.507Z,23.77
2018-01-27T13:26:00.031Z,21.17
2018-01-27T13:28:27.581Z,24.43
2018-01-27T13:30:55.173Z,24.17
2018-01-27T13:33:22.691Z,22.23
2018-01-27T13:35:50.251Z,24.10
2018-01-27T13:38:18.084Z,26.77
2018-01-27T13:40:45.622Z,24.33
2018-01-27T13:43:13.164Z,23.70
2018-01-27T13:45:40.698Z,20.87
2018-01-27T13:48:08.212Z,24.70
2018-01-27T13:50:35.818Z,25.73
2018-01-27T13:53:03.373Z,23.17
2018-01-27T13:55:30.990Z,23.53
2018-01-27T13:57:58.529Z,23.13
2018-01-27T14:00:26.053Z,23.00
2018-01-27T14:02:53.616Z,23.13
2018-01-27T14:05:21.126Z,23.30
2018-01-27T14:07:48.645Z,20.67
2018-01-27T14:10:16.241Z,21.80
2018-01-27T14:12:43.755Z,22.10
2018-01-27T14:15:11.340Z,21.13
2018-01-27T14:17:39.044Z,20.50
2018-01-27T14:20:06.577Z,20.73
2018-01-27T14:22:34.171Z,22.20
2018-01-27T14:25:01.853Z,23.43
2018-01-27T14:27:29.401Z,22.00
2018-01-27T14:29:56.969Z,22.60
2018-01-27T14:32:24.513Z,23.30
2018-01-27T14:34:52.070Z,23.87
2018-01-27T14:37:19.623Z,19.93
2018-01-27T14:39:47.521Z,22.60
2018-01-27T14:42:15.040Z,23.50
2018-01-27T14:44:42.575Z,20.50
2018-01-27T14:47:10.159Z,21.77
2018-01-27T14:49:37.684Z,23.13
2018-01-27T14:52:05.243Z,22.30
2018-01-27T14:54:32.839Z,18.13
2018-01-27T14:57:00.355Z,24.83
2018-01-27T14:59:27.858Z,36.67
2018-01-27T15:01:56.383Z,23.97
2018-01-27T15:04:23.954Z,20.80
2018-01-27T15:06:51.507Z,20.73
2018-01-27T15:09:19.095Z,17.47
2018-01-27T15:11:46.689Z,21.37
2018-01-27T15:14:14.208Z,19.23
2018-01-27T15:16:41.728Z,18.20
2018-01-27T15:19:09.293Z,18.87
2018-01-27T15:21:36.881Z,18.00
2018-01-27T15:24:04.442Z,18.70
2018-01-27T15:26:32.007Z,17.47
2018-01-27T15:28:59.593Z,18.40
2018-01-27T15:31:27.153Z,19.00
2018-01-27T15:33:54.688Z,19.63
2018-01-27T15:36:22.441Z,19.07
2018-01-27T15:38:50.614Z,20.10
2018-01-27T15:41:18.132Z,17.43
2018-01-27T15:43:45.648Z,19.40
2018-01-27T15:46:13.207Z,18.30
2018-01-27T15:48:40.779Z,19.80
2018-01-27T15:51:08.336Z,18.20
2018-01-27T15:53:35.866Z,20.73
2018-01-27T15:56:03.703Z,20.07
2018-01-27T15:58:31.225Z,20.77
2018-01-27T16:00:58.781Z,19.20
2018-01-27T16:03:26.316Z,21.40
2018-01-27T16:05:53.929Z,22.00
2018-01-27T16:08:21.487Z,19.70
2018-01-27T16:10:49.019Z,20.60
2018-01-27T16:13:16.590Z,19.57
2018-01-27T16:15:44.121Z,22.10
2018-01-27T16:18:11.674Z,20.47
2018-01-27T16:20:39.231Z,22.13
2018-01-27T16:23:06.996Z,32.57
2018-01-27T16:25:34.914Z,55.47
2018-01-27T16:28:02.507Z,38.93
2018-01-27T16:30:30.093Z,25.77
2018-01-27T16:32:57.653Z,25.80
2018-01-27T16:35:25.210Z,22.83
2018-01-27T16:37:52.946Z,21.23
2018-01-27T16:40:20.637Z,21.63
2018-01-27T16:42:48.414Z,19.33
2018-01-27T16:45:15.976Z,20.43
2018-01-27T16:47:43.563Z,20.00
2018-01-27T16:50:11.107Z,20.33
2018-01-27T16:52:38.719Z,21.87
2018-01-27T16:55:06.382Z,21.20
2018-01-27T16:57:34.037Z,23.87
2018-01-27T17:00:01.598Z,21.03
2018-01-27T17:02:29.116Z,21.13
2018-01-27T17:04:56.661Z,23.23
2018-01-27T17:07:24.199Z,19.70
2018-01-27T17:09:52.032Z,22.60
2018-01-27T17:12:19.729Z,21.20
2018-01-27T17:14:47.483Z,20.40
2018-01-27T17:17:15.099Z,18.90
2018-01-27T17:19:42.598Z,19.17
2018-01-27T17:22:10.130Z,21.17
2018-01-27T17:24:37.698Z,19.10
2018-01-27T17:27:05.240Z,20.87
2018-01-27T17:29:32.798Z,20.13
2018-01-27T17:32:00.335Z,21.97
2018-01-27T17:34:28.195Z,18.77
2018-01-27T17:36:55.733Z,21.03
2018-01-27T17:39:23.310Z,16.47
2018-01-27T17:41:50.845Z,17.60
2018-01-27T17:44:18.368Z,15.53
2018-01-27T17:46:45.915Z,15.90
2018-01-27T17:49:13.504Z,14.47
2018-01-27T17:51:41.200Z,15.00
2018-01-27T17:54:08.747Z,13.80
2018-01-27T17:56:36.260Z,15.63
2018-01-27T17:59:04.126Z,16.47
2018-01-27T18:01:31.687Z,15.70
2018-01-27T18:03:59.354Z,15.60
2018-01-27T18:06:26.939Z,16.30
2018-01-27T18:08:54.532Z,15.20
2018-01-27T18:11:22.069Z,15.57
2018-01-27T18:13:49.629Z,15.00
2018-01-27T18:16:17.162Z,14.77
2018-01-27T18:18:46.531Z,15.80
2018-01-27T18:21:14.040Z,13.53
2018-01-27T18:23:41.638Z,14.50
2018-01-27T18:26:09.160Z,16.03
2018-01-27T18:28:36.748Z,14.03
2018-01-27T18:31:04.315Z,14.57
2018-01-27T18:33:31.851Z,10.90
2018-01-27T18:35:59.457Z,14.90
2018-01-27T18:38:27.013Z,13.57
2018-01-27T18:40:54.554Z,13.23
2018-01-27T18:43:22.090Z,14.80
2018-01-27T18:45:49.645Z,17.13
2018-01-27T18:48:17.207Z,15.77
2018-01-27T18:50:44.777Z,12.63
2018-01-27T18:53:12.294Z,14.20
2018-01-27T18:55:39.836Z,15.23
2018-01-27T18:58:07.417Z,14.00
2018-01-27T19:00:34.927Z,13.43
2018-01-27T19:03:02.542Z,12.90
2018-01-27T19:05:30.176Z,11.53
2018-01-27T19:07:57.733Z,11.40
2018-01-27T19:10:25.302Z,11.53
2018-01-27T19:12:52.913Z,13.00
2018-01-27T19:15:20.470Z,12.07
2018-01-27T19:17:48.013Z,13.40
2018-01-27T19:20:15.608Z,12.30
2018-01-27T19:22:43.158Z,12.93
2018-01-27T19:25:10.679Z,13.40
2018-01-27T19:27:38.257Z,14.40
2018-01-27T19:30:05.938Z,11.57
2018-01-27T19:32:33.472Z,11.70
2018-01-27T19:35:01.045Z,10.87
2018-01-27T19:37:28.600Z,11.60
2018-01-27T19:39:56.115Z,13.30
2018-01-27T19:42:23.689Z,10.40
2018-01-27T19:44:51.212Z,11.30
2018-01-27T19:47:18.856Z,10.90
2018-01-27T19:49:46.425Z,11.00
2018-01-27T19:52:14.040Z,11.30
2018-01-27T19:54:41.598Z,12.07
2018-01-27T19:57:09.255Z,12.70
2018-01-27T19:59:37.211Z,11.37
2018-01-27T20:02:04.741Z,9.50
2018-01-27T20:04:32.474Z,10.40
2018-01-27T20:07:00.056Z,9.03
2018-01-27T20:09:27.600Z,7.97
2018-01-27T20:11:55.107Z,9.30
2018-01-27T20:14:23.006Z,9.97
2018-01-27T20:16:50.557Z,10.80
2018-01-27T20:19:18.082Z,9.93
2018-01-27T20:21:45.627Z,9.50
2018-01-27T20:24:13.275Z,7.80
2018-01-27T20:26:40.850Z,7.93
2018-01-27T20:29:08.391Z,10.73
2018-01-27T20:31:36.297Z,8.03
2018-01-27T20:34:03.998Z,10.23
2018-01-27T20:36:31.532Z,9.43
2018-01-27T20:38:59.140Z,9.63
2018-01-27T20:41:26.691Z,10.43
2018-01-27T20:43:54.413Z,9.80
2018-01-27T20:46:21.978Z,7.77
2018-01-27T20:48:49.528Z,17.17
2018-01-27T20:51:17.104Z,11.80
2018-01-27T20:53:44.674Z,10.33
2018-01-27T20:56:12.216Z,8.80
2018-01-27T20:58:39.750Z,14.23
2018-01-27T21:01:07.341Z,11.73
2018-01-27T21:03:34.886Z,11.03
2018-01-27T21:06:02.525Z,12.40
2018-01-27T21:08:30.098Z,13.03
2018-01-27T21:10:57.765Z,10.37
2018-01-27T21:13:25.335Z,13.03
2018-01-27T21:15:52.930Z,11.20
2018-01-27T21:18:20.464Z,13.27
2018-01-27T21:20:48.172Z,13.97
2018-01-27T21:23:15.776Z,9.10
2018-01-27T21:25:43.319Z,13.60
2018-01-27T21:28:10.835Z,15.40
2018-01-27T21:30:38.409Z,13.97
2018-01-27T21:33:05.925Z,11.90
2018-01-27T21:35:33.481Z,12.80
2018-01-27T21:38:01.051Z,15.43
2018-01-27T21:40:28.581Z,16.00
2018-01-27T21:42:56.170Z,12.53
2018-01-27T21:45:23.801Z,12.90
2018-01-27T21:47:51.333Z,12.83
2018-01-27T21:50:18.947Z,14.17
2018-01-27T21:52:46.463Z,12.80
2018-01-27T21:55:13.999Z,13.13
2018-01-27T21:57:41.567Z,14.30
2018-01-27T22:00:09.121Z,12.30
2018-01-27T22:02:36.705Z,14.20
2018-01-27T22:05:04.261Z,12.20
2018-01-27T22:07:31.811Z,13.27
2018-01-27T22:09:59.374Z,13.97
2018-01-27T22:12:26.891Z,11.27
2018-01-27T22:14:54.574Z,14.50
2018-01-27T22:17:22.170Z,14.33
2018-01-27T22:19:49.732Z,13.13
2018-01-27T22:22:17.266Z,11.40
2018-01-27T22:24:44.789Z,8.37
2018-01-27T22:27:12.670Z,10.57
2018-01-27T22:29:40.192Z,11.80
2018-01-27T22:32:07.754Z,12.27
2018-01-27T22:34:35.323Z,13.00
2018-01-27T22:37:02.902Z,12.37
2018-01-27T22:39:30.495Z,11.87
2018-01-27T22:41:58.030Z,11.07
2018-01-27T22:44:25.575Z,11.93
2018-01-27T22:46:53.482Z,12.43
2018-01-27T22:49:21.061Z,14.40
2018-01-27T22:51:48.596Z,14.40
2018-01-27T22:54:16.169Z,13.87
2018-01-27T22:56:43.730Z,14.10
2018-01-27T22:59:11.342Z,15.60
2018-01-27T23:01:38.873Z,13.90
2018-01-27T23:04:06.437Z,15.73
2018-01-27T23:06:34.021Z,14.07
2018-01-27T23:09:01.599Z,15.13
2018-01-27T23:11:29.129Z,13.83
2018-01-27T23:13:56.666Z,15.40
2018-01-27T23:16:24.300Z,14.80
2018-01-27T23:18:51.861Z,14.27
2018-01-27T23:21:19.417Z,13.87
2018-01-27T23:23:46.963Z,11.80
2018-01-27T23:26:14.494Z,14.80
2018-01-27T23:28:42.901Z,13.33
2018-01-27T23:31:10.453Z,15.83
2018-01-27T23:33:38.051Z,15.00
2018-01-27T23:36:05.585Z,13.23
2018-01-27T23:38:33.128Z,17.20
2018-01-27T23:41:00.701Z,15.87
2018-01-27T23:43:28.326Z,17.53
2018-01-27T23:45:55.927Z,14.70
2018-01-27T23:48:23.454Z,15.43
2018-01-27T23:50:50.989Z,14.93
2018-01-27T23:53:18.540Z,16.70
2018-01-27T23:55:46.102Z,19.60
2018-01-27T23:58:13.637Z,17.70
